createdAt,value
2022-11-29T00:02:06.945Z,1.21
2022-11-29T00:07:11.123Z,0.85
2022-11-29T00:12:16.330Z,0.83
2022-11-29T00:17:21.921Z,0.84
2022-11-29T00:22:26.345Z,0.96
2022-11-29T00:27:30.453Z,0.95
2022-11-29T00:32:36.953Z,0.97
2022-11-29T00:37:41.035Z,0.94
2022-11-29T00:42:45.239Z,0.85
2022-11-29T00:47:50.934Z,1.33
2022-11-29T00:52:55.044Z,0.91
2022-11-29T00:57:59.199Z,1.13
2022-11-29T01:03:05.130Z,0.93
2022-11-29T01:08:09.558Z,1.00
2022-11-29T01:13:13.746Z,1.06
2022-11-29T01:18:19.211Z,1.21
2022-11-29T01:23:23.287Z,1.38
2022-11-29T01:28:27.462Z,1.15
2022-11-29T01:33:32.889Z,0.84
2022-11-29T01:38:37.766Z,1.17
2022-11-29T01:44:00.474Z,0.86
2022-11-29T01:49:12.215Z,0.88
2022-11-29T01:54:16.708Z,0.95
2022-11-29T01:59:27.088Z,1.15
2022-11-29T02:04:35.674Z,1.30
2022-11-29T02:09:40.042Z,1.23
2022-11-29T02:15:02.505Z,1.08
2022-11-29T02:20:42.644Z,1.21
2022-11-29T02:26:04.841Z,1.00
2022-11-29T02:31:38.382Z,1.00
2022-11-29T02:37:10.065Z,0.99
2022-11-29T02:42:56.167Z,0.96
2022-11-29T02:48:24.122Z,1.09
2022-11-29T02:53:37.285Z,1.13
2022-11-29T02:58:49.420Z,1.09
2022-11-29T03:04:02.069Z,1.06
2022-11-29T03:09:15.279Z,0.98
2022-11-29T03:14:27.907Z,1.09
2022-11-29T03:19:58.357Z,1.02
2022-11-29T03:25:09.347Z,1.04
2022-11-29T03:30:18.526Z,0.97
2022-11-29T03:35:30.980Z,0.93
2022-11-29T03:40:44.980Z,1.12
2022-11-29T03:45:53.607Z,0.91
2022-11-29T03:51:03.496Z,1.12
2022-11-29T04:02:14.861Z,1.11
2022-11-29T04:07:36.804Z,0.93
2022-11-29T04:13:17.396Z,0.76
2022-11-29T04:18:49.331Z,0.97
2022-11-29T04:24:32.399Z,0.99
2022-11-29T04:30:06.881Z,1.13
2022-11-29T04:35:28.973Z,1.14
2022-11-29T04:41:02.658Z,1.21
2022-11-29T04:46:33.202Z,1.27
2022-11-29T04:52:03.868Z,1.25
2022-11-29T04:57:13.509Z,1.27
2022-11-29T05:02:32.817Z,1.20
2022-11-29T05:07:45.739Z,1.37
2022-11-29T05:12:58.983Z,1.35
2022-11-29T05:18:18.236Z,1.23
2022-11-29T05:23:41.268Z,1.45
2022-11-29T05:28:56.316Z,1.33
2022-11-29T05:34:34.879Z,1.27
2022-11-29T05:40:04.644Z,1.39
2022-11-29T05:45:17.696Z,1.22
2022-11-29T05:50:28.864Z,1.27
2022-11-29T05:55:53.401Z,1.37
2022-11-29T06:01:03.525Z,1.41
2022-11-29T06:06:17.323Z,1.28
2022-11-29T06:11:26.996Z,1.27
2022-11-29T06:17:03.090Z,1.51
2022-11-29T06:22:24.055Z,1.53
2022-11-29T06:27:41.300Z,1.52
2022-11-29T06:32:54.114Z,1.69
2022-11-29T06:38:02.412Z,1.63
2022-11-29T06:43:06.760Z,1.66
2022-11-29T06:48:15.877Z,1.59
2022-11-29T06:53:25.554Z,1.42
2022-11-29T06:58:43.989Z,1.56
2022-11-29T07:04:04.481Z,1.60
2022-11-29T07:09:15.950Z,1.56
2022-11-29T07:14:20.632Z,1.84
2022-11-29T07:19:36.359Z,1.77
2022-11-29T07:24:58.312Z,2.05
2022-11-29T07:30:11.896Z,2.08
2022-11-29T07:35:20.800Z,2.18
2022-11-29T07:40:37.381Z,1.96
2022-11-29T07:45:41.836Z,1.76
2022-11-29T07:50:46.694Z,2.33
2022-11-29T07:55:52.467Z,2.06
2022-11-29T08:00:56.567Z,2.00
2022-11-29T08:11:30.781Z,2.08
2022-11-29T08:16:35.028Z,2.35
2022-11-29T08:21:39.073Z,2.51
2022-11-29T08:26:44.672Z,2.45
2022-11-29T08:31:53.620Z,2.41
2022-11-29T08:36:57.926Z,2.73
2022-11-29T08:42:03.525Z,2.65
2022-11-29T08:47:25.323Z,2.34
2022-11-29T08:52:47.258Z,2.56
2022-11-29T08:57:54.207Z,2.42
2022-11-29T09:03:18.316Z,2.66
2022-11-29T09:08:22.683Z,2.81
2022-11-29T09:13:28.203Z,2.82
2022-11-29T09:18:32.188Z,2.97
2022-11-29T09:23:36.587Z,2.62
2022-11-29T09:28:42.036Z,2.41
2022-11-29T09:33:46.759Z,2.07
2022-11-29T09:38:50.878Z,2.13
2022-11-29T09:44:05.036Z,2.31
2022-11-29T09:49:28.327Z,2.28
2022-11-29T09:54:38.686Z,2.49
2022-11-29T09:59:48.715Z,2.49
2022-11-29T10:04:58.657Z,2.72
2022-11-29T10:10:05.622Z,2.20
2022-11-29T10:15:16.961Z,2.47
2022-11-29T10:20:24.554Z,2.69
2022-11-29T10:25:33.474Z,2.94
2022-11-29T10:30:41.131Z,2.88
2022-11-29T10:35:46.458Z,2.92
2022-11-29T10:40:55.245Z,2.92
2022-11-29T10:46:02.606Z,3.13
2022-11-29T10:51:17.313Z,2.95
2022-11-29T10:56:25.526Z,3.08
2022-11-29T11:01:33.145Z,3.35
2022-11-29T11:06:46.926Z,3.20
2022-11-29T11:11:56.062Z,2.92
2022-11-29T11:17:17.059Z,3.22
2022-11-29T11:22:23.307Z,3.09
2022-11-29T11:27:32.636Z,3.52
2022-11-29T11:32:38.595Z,3.63
2022-11-29T11:37:42.689Z,3.43
2022-11-29T11:42:47.357Z,3.78
2022-11-29T11:47:55.085Z,3.75
2022-11-29T11:53:01.230Z,3.81
2022-11-29T11:58:16.316Z,3.68
2022-11-29T12:03:34.659Z,3.49
2022-11-29T12:08:41.106Z,3.51
2022-11-29T12:13:52.077Z,3.62
2022-11-29T12:19:04.146Z,3.67
2022-11-29T12:24:20.292Z,3.75
2022-11-29T12:29:25.824Z,3.68
2022-11-29T12:34:53.536Z,3.22
2022-11-29T12:40:06.270Z,3.42
2022-11-29T12:45:26.063Z,3.29
2022-11-29T12:50:40.726Z,3.36
2022-11-29T12:55:54.781Z,3.11
2022-11-29T13:01:07.946Z,3.06
2022-11-29T13:06:21.236Z,3.40
2022-11-29T13:11:28.698Z,3.09
2022-11-29T13:16:43.491Z,2.89
2022-11-29T13:21:56.833Z,3.19
2022-11-29T13:27:04.508Z,3.17
2022-11-29T13:32:14.538Z,2.99
2022-11-29T13:37:25.166Z,3.22
2022-11-29T13:42:38.793Z,3.21
2022-11-29T13:47:50.597Z,3.35
2022-11-29T13:53:04.718Z,3.08
2022-11-29T13:58:24.752Z,3.29
2022-11-29T14:03:36.668Z,3.13
2022-11-29T14:09:17.099Z,3.25
2022-11-29T14:14:22.749Z,3.28
2022-11-29T14:19:33.435Z,3.34
2022-11-29T14:24:43.990Z,3.32
2022-11-29T14:29:55.968Z,3.08
2022-11-29T14:35:09.333Z,3.29
2022-11-29T14:40:27.664Z,3.05
2022-11-29T14:45:34.787Z,3.17
2022-11-29T14:50:40.636Z,3.31
2022-11-29T14:55:48.397Z,3.15
2022-11-29T15:01:09.752Z,2.75
2022-11-29T15:06:24.476Z,2.81
2022-11-29T15:11:52.020Z,2.78
2022-11-29T15:17:05.509Z,3.15
2022-11-29T15:22:16.778Z,3.22
2022-11-29T15:27:23.013Z,3.33
2022-11-29T15:32:31.068Z,3.31
2022-11-29T15:37:44.698Z,3.21
2022-11-29T15:42:53.833Z,3.04
2022-11-29T15:48:13.036Z,3.00
2022-11-29T15:53:22.161Z,3.11
2022-11-29T15:58:31.117Z,3.06
2022-11-29T16:03:39.208Z,3.23
2022-11-29T16:08:43.859Z,3.15
2022-11-29T16:14:05.111Z,3.16
2022-11-29T16:19:12.038Z,3.18
2022-11-29T16:24:22.573Z,3.19
2022-11-29T16:29:30.939Z,3.31
2022-11-29T16:34:35.030Z,3.18
2022-11-29T16:39:41.532Z,3.04
2022-11-29T16:45:39.073Z,3.11
2022-11-29T16:50:43.165Z,3.10
2022-11-29T16:55:47.184Z,2.85
2022-11-29T17:00:52.690Z,2.71
2022-11-29T17:05:56.784Z,3.00
2022-11-29T17:11:00.875Z,2.76
2022-11-29T17:16:11.313Z,2.70
2022-11-29T17:21:20.273Z,2.98
2022-11-29T17:26:27.908Z,2.96
2022-11-29T17:31:33.385Z,3.03
2022-11-29T17:36:37.516Z,2.98
2022-11-29T17:41:41.556Z,2.96
2022-11-29T17:46:47.521Z,2.81
2022-11-29T17:51:53.253Z,2.78
2022-11-29T17:56:57.828Z,2.72
2022-11-29T18:02:04.037Z,2.83
2022-11-29T18:07:08.161Z,2.93
2022-11-29T18:12:12.160Z,2.80
2022-11-29T18:17:17.727Z,2.92
2022-11-29T18:22:21.887Z,2.87
2022-11-29T18:27:25.981Z,3.18
2022-11-29T18:32:33.355Z,3.18
2022-11-29T18:38:12.948Z,3.02
2022-11-29T18:43:01.452Z,3.27
2022-11-29T18:48:07.424Z,3.39
2022-11-29T18:53:11.420Z,3.41
2022-11-29T18:58:15.390Z,3.36
2022-11-29T19:03:20.813Z,3.25
2022-11-29T19:08:25.609Z,3.16
2022-11-29T19:13:29.796Z,3.41
2022-11-29T19:18:35.661Z,3.31
2022-11-29T19:23:40.272Z,3.00
2022-11-29T19:28:46.790Z,2.96
2022-11-29T19:33:52.827Z,3.03
2022-11-29T19:38:57.744Z,3.18
2022-11-29T19:44:05.466Z,3.20
2022-11-29T19:49:11.140Z,3.28
2022-11-29T19:54:15.584Z,3.39
2022-11-29T19:59:19.878Z,3.26
2022-11-29T20:04:25.634Z,3.18
2022-11-29T20:09:29.919Z,3.29
2022-11-29T20:14:34.295Z,3.27
2022-11-29T20:19:39.930Z,3.25
2022-11-29T20:24:45.763Z,3.35
2022-11-29T20:29:53.335Z,3.28
2022-11-29T20:35:03.697Z,3.29
2022-11-29T20:40:12.129Z,3.32
2022-11-29T20:45:18.108Z,3.30
2022-11-29T20:50:26.865Z,3.48
2022-11-29T20:55:31.039Z,3.51
2022-11-29T21:00:36.363Z,3.45
2022-11-29T21:05:42.085Z,3.61
2022-11-29T21:10:46.731Z,3.64
2022-11-29T21:15:51.711Z,3.68
2022-11-29T21:21:26.308Z,3.89
2022-11-29T21:26:40.060Z,3.84
2022-11-29T21:31:46.538Z,3.78
2022-11-29T21:36:56.981Z,3.91
2022-11-29T21:42:01.079Z,3.66
2022-11-29T21:47:05.261Z,3.69
2022-11-29T21:52:10.914Z,3.74
2022-11-29T21:57:14.976Z,3.73
2022-11-29T22:02:19.190Z,3.68
2022-11-29T22:07:25.448Z,3.73
2022-11-29T22:12:34.612Z,3.91
2022-11-29T22:17:39.388Z,3.78
2022-11-29T22:22:45.440Z,3.90
2022-11-29T22:27:50.848Z,3.84
2022-11-29T22:32:57.068Z,4.08
2022-11-29T22:38:02.485Z,3.94
2022-11-29T22:43:07.637Z,3.59
2022-11-29T22:48:11.633Z,3.21
2022-11-29T22:53:17.127Z,3.28
2022-11-29T22:58:21.197Z,3.56
2022-11-29T23:03:25.295Z,3.54
2022-11-29T23:08:32.984Z,3.55
2022-11-29T23:13:40.228Z,3.77
2022-11-29T23:18:45.686Z,3.86
2022-11-29T23:23:56.067Z,4.02
2022-11-29T23:29:00.795Z,4.06
2022-11-29T23:34:05.531Z,3.98
2022-11-29T23:39:11.118Z,4.06
2022-11-29T23:44:15.196Z,4.24
2022-11-29T23:49:19.328Z,4.26
2022-11-29T23:54:24.796Z,4.10
2022-11-29T23:59:28.784Z,4.20
